Time;durP1;ratioP1;P1;durP2;ratioP2;P2;SDS_P1;SDS_P2;PMS_P1;PMS_P2;Temp;Humidity;BMP_temperature;BMP_pressure;BME280_temperature;BME280_humidity;BME280_pressure;Samples;Min_cycle;Max_cycle;Signal;HPM_P1;HPM_P2
2022/01/26 00:00:05;0.00;0.00;0.62;0.00;0.00;0.62;1.50;1.17;;;21.90;28.80;;;;;;2268764;61;20409;-62
2022/01/26 00:06:06;0.00;0.00;0.62;0.00;0.00;0.62;2.87;2.17;;;21.90;28.90;;;;;;2268786;61;20404;-59
2022/01/26 00:08:51;0.00;0.00;0.62;0.00;0.00;0.62;2.10;1.67;;;21.90;28.80;;;;;;2268781;61;20381;-59
2022/01/26 00:11:37;0.00;0.00;0.62;0.00;0.00;0.62;3.40;2.10;;;21.90;28.70;;;;;;2268126;61;20709;-61
2022/01/26 00:14:23;0.00;0.00;0.62;0.00;0.00;0.62;3.37;2.40;;;21.90;28.70;;;;;;2268586;61;20352;-61
2022/01/26 00:17:10;0.00;0.00;0.62;0.00;0.00;0.62;2.93;2.07;;;21.90;28.50;;;;;;2268250;61;20397;-61
2022/01/26 00:20:08;0.00;0.00;0.62;0.00;0.00;0.62;3.63;2.77;;;21.90;28.50;;;;;;2268511;61;20808;-60
2022/01/26 00:23:36;0.00;0.00;0.62;0.00;0.00;0.62;5.40;3.13;;;21.80;28.30;;;;;;2268534;61;20438;-63
2022/01/26 00:26:27;0.00;0.00;0.62;0.00;0.00;0.62;3.43;2.63;;;21.80;28.30;;;;;;2267987;61;20364;-61
2022/01/26 00:29:14;0.00;0.00;0.62;0.00;0.00;0.62;3.63;2.67;;;21.80;28.20;;;;;;2268704;61;20360;-61
2022/01/26 00:33:07;0.00;0.00;0.62;0.00;0.00;0.62;2.80;2.20;;;21.80;28.10;;;;;;2266952;61;20373;-63
2022/01/26 00:41:18;0.00;0.00;0.62;0.00;0.00;0.62;4.03;3.50;;;21.70;27.80;;;;;;2265542;61;20393;-61
2022/01/26 00:44:06;0.00;0.00;0.62;0.00;0.00;0.62;3.87;3.10;;;21.70;27.80;;;;;;2265964;61;20392;-63
2022/01/26 00:46:50;0.00;0.00;0.62;0.00;0.00;0.62;4.43;3.67;;;21.60;27.70;;;;;;2265316;61;20420;-62
2022/01/26 00:49:36;0.00;0.00;0.62;0.00;0.00;0.62;4.93;3.60;;;21.60;27.70;;;;;;2302654;53;20388;-62
2022/01/26 00:52:28;0.00;0.00;0.62;0.00;0.00;0.62;5.00;3.43;;;21.60;27.70;;;;;;2265590;61;20381;-60
2022/01/26 00:55:15;0.00;0.00;0.62;0.00;0.00;0.62;4.60;3.87;;;21.60;27.70;;;;;;2265262;61;20346;-59
2022/01/26 00:58:00;0.00;0.00;0.62;0.00;0.00;0.62;4.57;3.30;;;21.50;27.70;;;;;;2265366;61;20400;-62
2022/01/26 01:00:45;0.00;0.00;0.62;0.00;0.00;0.62;4.10;2.97;;;21.50;27.70;;;;;;2265607;61;20405;-63
2022/01/26 01:03:33;0.00;0.00;0.62;0.00;0.00;0.62;4.60;3.63;;;21.50;27.70;;;;;;2265742;61;20373;-62
2022/01/26 01:06:28;0.00;0.00;0.62;0.00;0.00;0.62;5.20;3.47;;;21.40;27.60;;;;;;2265784;61;20378;-63
2022/01/26 01:09:14;0.00;0.00;0.62;0.00;0.00;0.62;5.40;4.40;;;21.40;27.60;;;;;;2265372;61;20377;-62
2022/01/26 01:12:01;0.00;0.00;0.62;0.00;0.00;0.62;5.50;3.27;;;21.40;27.60;;;;;;2265724;61;20653;-61
2022/01/26 01:14:46;0.00;0.00;0.62;0.00;0.00;0.62;3.93;3.13;;;21.40;27.60;;;;;;2265630;61;20380;-62
2022/01/26 01:17:37;0.00;0.00;0.62;0.00;0.00;0.62;4.10;3.30;;;21.30;27.50;;;;;;2265136;61;20842;-63
2022/01/26 01:21:01;0.00;0.00;0.62;0.00;0.00;0.62;4.80;3.33;;;21.30;27.50;;;;;;2265670;61;20389;-63
2022/01/26 01:24:18;0.00;0.00;0.62;0.00;0.00;0.62;4.13;3.23;;;21.30;27.50;;;;;;2265010;61;20377;-61
2022/01/26 01:33:07;0.00;0.00;0.62;0.00;0.00;0.62;6.33;4.07;;;21.20;27.40;;;;;;2265238;61;20384;-61
2022/01/26 01:35:52;0.00;0.00;0.62;0.00;0.00;0.62;6.97;4.03;;;21.20;27.40;;;;;;2265577;61;20357;-61
2022/01/26 01:38:40;0.00;0.00;0.62;0.00;0.00;0.62;5.60;3.90;;;21.10;27.40;;;;;;2265456;61;20712;-58
2022/01/26 01:41:26;0.00;0.00;0.62;0.00;0.00;0.62;4.90;3.73;;;21.10;27.40;;;;;;2265577;61;20385;-60
2022/01/26 01:44:12;0.00;0.00;0.62;0.00;0.00;0.62;4.30;3.40;;;21.10;27.40;;;;;;2265420;61;20361;-63
2022/01/26 01:46:57;0.00;0.00;0.62;0.00;0.00;0.62;4.07;3.67;;;21.10;27.40;;;;;;2265033;61;20744;-59
2022/01/26 01:49:42;0.00;0.00;0.62;0.00;0.00;0.62;6.13;4.70;;;21.00;27.30;;;;;;2293771;61;20709;-63
2022/01/26 01:52:27;0.00;0.00;0.62;0.00;0.00;0.62;6.10;4.10;;;21.00;27.30;;;;;;2265580;61;20753;-63
2022/01/26 01:55:12;0.00;0.00;0.62;0.00;0.00;0.62;5.70;4.30;;;21.00;27.30;;;;;;2265379;61;20361;-59
2022/01/26 01:57:59;0.00;0.00;0.62;0.00;0.00;0.62;6.00;4.07;;;21.00;27.30;;;;;;2265355;61;20368;-59
2022/01/26 02:00:44;0.00;0.00;0.62;0.00;0.00;0.62;7.00;4.20;;;20.90;27.20;;;;;;2265140;61;20484;-62
2022/01/26 02:03:29;0.00;0.00;0.62;0.00;0.00;0.62;5.70;4.53;;;20.90;27.30;;;;;;2265358;61;20415;-61
2022/01/26 02:06:14;0.00;0.00;0.62;0.00;0.00;0.62;6.23;3.80;;;20.90;27.20;;;;;;2265699;61;20361;-62
2022/01/26 02:08:58;0.00;0.00;0.62;0.00;0.00;0.62;4.47;3.60;;;20.80;27.20;;;;;;2265257;61;20353;-61
2022/01/26 02:11:45;0.00;0.00;0.62;0.00;0.00;0.62;5.80;4.30;;;20.80;27.20;;;;;;2265105;61;20406;-60
2022/01/26 02:14:36;0.00;0.00;0.62;0.00;0.00;0.62;6.77;4.87;;;20.80;27.20;;;;;;2265819;61;20357;-61
2022/01/26 02:59:34;0.00;0.00;0.62;0.00;0.00;0.62;5.57;3.90;;;20.50;26.90;;;;;;2265463;61;20400;-61
2022/01/26 03:02:42;0.00;0.00;0.62;0.00;0.00;0.62;6.00;4.50;;;20.50;26.90;;;;;;2265094;61;20461;-61
2022/01/26 03:05:31;0.00;0.00;0.62;0.00;0.00;0.62;6.43;5.13;;;20.40;26.90;;;;;;2265498;61;20365;-63
2022/01/26 03:08:17;0.00;0.00;0.62;0.00;0.00;0.62;6.20;4.03;;;20.40;26.90;;;;;;2264584;61;20349;-61
2022/01/26 03:11:12;0.00;0.00;0.62;0.00;0.00;0.62;5.90;4.70;;;20.40;26.90;;;;;;2265278;61;20357;-61
2022/01/26 03:14:07;0.00;0.00;0.62;0.00;0.00;0.62;5.90;4.40;;;20.30;26.70;;;;;;2265510;61;20420;-60
2022/01/26 03:16:58;0.00;0.00;0.62;0.00;0.00;0.62;5.80;4.27;;;20.30;26.60;;;;;;2265225;61;20385;-63
2022/01/26 03:19:48;0.00;0.00;0.62;0.00;0.00;0.62;5.63;4.20;;;20.30;26.70;;;;;;2265323;61;20566;-58
2022/01/26 03:34:35;0.00;0.00;0.62;0.00;0.00;0.62;5.23;3.80;;;20.20;26.70;;;;;;2265356;61;20816;-60
2022/01/26 03:37:23;0.00;0.00;0.62;0.00;0.00;0.62;5.50;3.83;;;20.20;26.70;;;;;;2264773;61;20700;-61
2022/01/26 03:40:14;0.00;0.00;0.62;0.00;0.00;0.62;6.77;4.00;;;20.20;26.70;;;;;;2265303;61;20360;-60
2022/01/26 03:42:59;0.00;0.00;0.62;0.00;0.00;0.62;5.47;3.67;;;20.20;26.70;;;;;;2265242;61;20380;-61
2022/01/26 03:45:45;0.00;0.00;0.62;0.00;0.00;0.62;4.30;3.40;;;20.10;26.70;;;;;;2264794;61;20353;-58
2022/01/26 03:48:29;0.00;0.00;0.62;0.00;0.00;0.62;4.70;3.30;;;20.10;26.70;;;;;;2265258;61;20624;-59
2022/01/26 03:51:14;0.00;0.00;0.62;0.00;0.00;0.62;5.43;3.63;;;20.10;26.70;;;;;;2264756;61;20596;-61
2022/01/26 03:53:59;0.00;0.00;0.62;0.00;0.00;0.62;4.57;3.30;;;20.10;26.70;;;;;;2265247;61;20970;-61
2022/01/26 03:56:43;0.00;0.00;0.62;0.00;0.00;0.62;6.53;4.00;;;20.10;26.70;;;;;;2265190;61;20564;-63
2022/01/26 03:59:28;0.00;0.00;0.62;0.00;0.00;0.62;4.50;3.47;;;20.10;26.70;;;;;;2264830;61;20389;-61
2022/01/26 04:02:13;0.00;0.00;0.62;0.00;0.00;0.62;6.73;4.60;;;20.10;26.70;;;;;;2264581;61;20389;-61
2022/01/26 04:05:01;0.00;0.00;0.62;0.00;0.00;0.62;5.70;3.63;;;20.10;26.70;;;;;;2265390;61;20492;-61
2022/01/26 04:07:46;0.00;0.00;0.62;0.00;0.00;0.62;5.67;4.20;;;20.10;26.70;;;;;;2265048;61;20387;-60
2022/01/26 04:11:26;0.00;0.00;0.62;0.00;0.00;0.62;5.20;3.80;;;20.10;26.70;;;;;;2265884;61;20395;-61
2022/01/26 04:13:39;0.00;0.00;0.62;0.00;0.00;0.62;5.10;4.03;;;20.00;26.60;;;;;;2265482;61;20744;-61
2022/01/26 04:16:23;0.00;0.00;0.62;0.00;0.00;0.62;5.67;4.03;;;20.00;26.60;;;;;;2265798;61;20748;-59
2022/01/26 04:19:11;0.00;0.00;0.62;0.00;0.00;0.62;6.07;4.60;;;20.00;26.60;;;;;;2265871;61;20365;-60
2022/01/26 04:24:51;0.00;0.00;0.62;0.00;0.00;0.62;6.00;3.90;;;19.90;26.40;;;;;;2266174;61;20425;-62
2022/01/26 04:27:41;0.00;0.00;0.62;0.00;0.00;0.62;5.10;3.97;;;19.90;26.50;;;;;;2265964;61;20365;-62
2022/01/26 04:30:25;0.00;0.00;0.62;0.00;0.00;0.62;6.13;4.50;;;19.90;26.50;;;;;;2265430;61;20768;-59
2022/01/26 04:33:10;0.00;0.00;0.62;0.00;0.00;0.62;6.90;4.40;;;19.90;26.50;;;;;;2265729;61;20760;-62
2022/01/26 04:35:56;0.00;0.00;0.62;0.00;0.00;0.62;4.97;4.00;;;19.90;26.50;;;;;;2265620;61;20365;-59
2022/01/26 04:38:46;0.00;0.00;0.62;0.00;0.00;0.62;6.10;3.80;;;19.90;26.50;;;;;;2265588;61;20729;-63
2022/01/26 04:41:40;0.00;0.00;0.62;0.00;0.00;0.62;5.07;3.73;;;19.80;26.50;;;;;;2265639;61;20397;-61
2022/01/26 04:44:29;0.00;0.00;0.62;0.00;0.00;0.62;5.90;3.63;;;19.80;26.50;;;;;;2265346;61;20579;-62
2022/01/26 04:47:13;0.00;0.00;0.62;0.00;0.00;0.62;6.20;3.90;;;19.80;26.50;;;;;;2265795;61;20431;-59
2022/01/26 04:49:58;0.00;0.00;0.62;0.00;0.00;0.62;5.50;4.13;;;19.80;26.50;;;;;;2265944;61;20368;-63
2022/01/26 04:52:46;0.00;0.00;0.62;0.00;0.00;0.62;6.47;4.80;;;19.90;26.50;;;;;;2265379;61;20377;-63
2022/01/26 04:55:30;0.00;0.00;0.62;0.00;0.00;0.62;6.50;4.60;;;19.80;26.50;;;;;;2265807;61;20360;-63
2022/01/26 04:58:15;0.00;0.00;0.62;0.00;0.00;0.62;7.17;4.37;;;19.80;26.50;;;;;;2265356;61;20365;-61
2022/01/26 05:01:00;0.00;0.00;0.62;0.00;0.00;0.62;5.10;3.93;;;19.80;26.50;;;;;;2265514;61;20768;-62
2022/01/26 05:03:44;0.00;0.00;0.62;0.00;0.00;0.62;5.13;4.17;;;19.80;26.50;;;;;;2265836;61;20392;-60
2022/01/26 05:06:29;0.00;0.00;0.62;0.00;0.00;0.62;4.37;3.23;;;19.80;26.50;;;;;;2265438;61;20726;-60
2022/01/26 05:09:15;0.00;0.00;0.62;0.00;0.00;0.62;5.50;4.40;;;19.80;26.50;;;;;;2265900;61;20736;-60
2022/01/26 05:12:01;0.00;0.00;0.62;0.00;0.00;0.62;6.00;4.10;;;19.80;26.50;;;;;;2265672;61;20610;-62
2022/01/26 05:14:48;0.00;0.00;0.62;0.00;0.00;0.62;5.03;3.97;;;19.80;26.50;;;;;;2265278;61;20396;-59
2022/01/26 05:17:32;0.00;0.00;0.62;0.00;0.00;0.62;7.73;5.27;;;19.80;26.50;;;;;;2265673;61;20571;-61
2022/01/26 05:20:17;0.00;0.00;0.62;0.00;0.00;0.62;5.00;4.30;;;19.70;26.40;;;;;;2265310;61;20477;-62
2022/01/26 05:23:02;0.00;0.00;0.62;0.00;0.00;0.62;6.20;4.27;;;19.70;26.40;;;;;;2265469;61;20424;-57
2022/01/26 05:25:48;0.00;0.00;0.62;0.00;0.00;0.62;5.63;3.40;;;19.70;26.40;;;;;;2265744;61;20364;-60
2022/01/26 05:28:33;0.00;0.00;0.62;0.00;0.00;0.62;6.70;4.77;;;19.70;26.40;;;;;;2265455;61;20365;-60
2022/01/26 05:31:17;0.00;0.00;0.62;0.00;0.00;0.62;6.17;4.80;;;19.70;26.40;;;;;;2265372;61;20396;-61
2022/01/26 05:34:01;0.00;0.00;0.62;0.00;0.00;0.62;7.27;4.57;;;19.70;26.40;;;;;;2265705;61;20350;-60
2022/01/26 05:36:46;0.00;0.00;0.62;0.00;0.00;0.62;7.30;5.27;;;19.70;26.40;;;;;;2265132;61;20373;-61
2022/01/26 05:39:32;0.00;0.00;0.62;0.00;0.00;0.62;7.10;4.40;;;19.70;26.40;;;;;;2265648;61;20361;-62
2022/01/26 05:42:18;0.00;0.00;0.62;0.00;0.00;0.62;7.40;5.53;;;19.70;26.40;;;;;;2264927;61;20436;-62
2022/01/26 05:45:08;0.00;0.00;0.62;0.00;0.00;0.62;7.93;5.50;;;19.70;26.40;;;;;;2265558;61;20472;-61
2022/01/26 05:47:52;0.00;0.00;0.62;0.00;0.00;0.62;8.87;6.37;;;19.70;26.40;;;;;;2265571;61;20408;-59
2022/01/26 05:50:38;0.00;0.00;0.62;0.00;0.00;0.62;12.20;7.80;;;19.70;26.40;;;;;;2265244;61;20377;-61
2022/01/26 05:53:23;0.00;0.00;0.62;0.00;0.00;0.62;11.67;8.50;;;19.70;26.40;;;;;;2265734;61;20585;-61
2022/01/26 05:56:08;0.00;0.00;0.62;0.00;0.00;0.62;18.43;10.70;;;19.70;26.20;;;;;;2265799;61;20357;-60
2022/01/26 05:58:54;0.00;0.00;0.62;0.00;0.00;0.62;10.97;8.33;;;19.60;25.90;;;;;;2264782;61;20357;-60
2022/01/26 06:01:38;0.00;0.00;0.62;0.00;0.00;0.62;11.60;8.23;;;19.60;25.80;;;;;;2265495;61;20392;-60
2022/01/26 06:04:23;0.00;0.00;0.62;0.00;0.00;0.62;17.30;11.63;;;19.60;25.90;;;;;;2265437;61;20441;-63
2022/01/26 06:07:08;0.00;0.00;0.62;0.00;0.00;0.62;13.73;8.70;;;19.50;25.80;;;;;;2265385;61;20720;-61
2022/01/26 06:09:52;0.00;0.00;0.62;0.00;0.00;0.62;11.40;8.90;;;19.50;25.90;;;;;;2265594;61;20713;-60
2022/01/26 06:12:37;0.00;0.00;0.62;0.00;0.00;0.62;13.13;9.07;;;19.50;26.10;;;;;;2265022;61;20741;-60
2022/01/26 06:15:23;0.00;0.00;0.62;0.00;0.00;0.62;9.83;7.17;;;19.50;26.30;;;;;;2265548;61;20582;-61
2022/01/26 06:18:08;0.00;0.00;0.62;0.00;0.00;0.62;9.53;7.33;;;19.50;26.30;;;;;;2265467;61;20479;-63
2022/01/26 06:20:53;0.00;0.00;0.62;0.00;0.00;0.62;10.70;7.50;;;19.50;26.30;;;;;;2264660;61;20413;-61
2022/01/26 06:23:37;0.00;0.00;0.62;0.00;0.00;0.62;10.33;6.93;;;19.50;26.30;;;;;;2265613;61;20615;-60
2022/01/26 06:26:21;0.00;0.00;0.62;0.00;0.00;0.62;12.10;6.17;;;19.50;26.30;;;;;;2265625;61;20420;-64
2022/01/26 06:29:06;0.00;0.00;0.62;0.00;0.00;0.62;8.80;6.23;;;19.50;26.30;;;;;;2265464;61;20380;-61
2022/01/26 06:31:52;0.00;0.00;0.62;0.00;0.00;0.62;7.43;5.30;;;19.60;26.30;;;;;;2265439;61;20428;-60
2022/01/26 06:34:39;0.00;0.00;0.62;0.00;0.00;0.62;7.00;5.10;;;19.60;26.30;;;;;;2265193;61;20365;-59
2022/01/26 06:37:24;0.00;0.00;0.62;0.00;0.00;0.62;6.97;5.27;;;19.60;26.30;;;;;;2265543;61;20399;-63
2022/01/26 06:40:09;0.00;0.00;0.62;0.00;0.00;0.62;6.63;5.03;;;19.60;26.30;;;;;;2265569;61;20357;-62
2022/01/26 06:42:58;0.00;0.00;0.62;0.00;0.00;0.62;8.40;5.90;;;19.60;26.30;;;;;;2264567;61;20783;-64
2022/01/26 06:45:50;0.00;0.00;0.62;0.00;0.00;0.62;6.40;4.73;;;19.60;26.30;;;;;;2265446;61;20357;-62
2022/01/26 06:51:33;0.00;0.00;0.62;0.00;0.00;0.62;5.80;4.00;;;19.60;26.30;;;;;;2265125;61;20403;-61
2022/01/26 06:54:18;0.00;0.00;0.62;0.00;0.00;0.62;7.00;4.67;;;19.70;26.40;;;;;;2265480;61;20353;-62
2022/01/26 06:57:03;0.00;0.00;0.62;0.00;0.00;0.62;5.07;3.87;;;19.70;26.40;;;;;;2264858;61;20430;-62
2022/01/26 06:59:48;0.00;0.00;0.62;0.00;0.00;0.62;5.97;4.27;;;19.70;26.40;;;;;;2265406;61;20396;-62
2022/01/26 07:02:32;0.00;0.00;0.62;0.00;0.00;0.62;5.93;4.73;;;19.70;26.40;;;;;;2265183;61;20389;-64
2022/01/26 07:05:18;0.00;0.00;0.62;0.00;0.00;0.62;6.20;4.20;;;19.70;26.40;;;;;;2264870;61;20364;-62
2022/01/26 07:08:03;0.00;0.00;0.62;0.00;0.00;0.62;5.17;4.30;;;19.70;26.40;;;;;;2265490;61;20412;-60
2022/01/26 07:10:49;0.00;0.00;0.62;0.00;0.00;0.62;5.00;3.83;;;19.70;26.40;;;;;;2265390;61;20408;-61
2022/01/26 07:13:34;0.00;0.00;0.62;0.00;0.00;0.62;6.17;4.13;;;19.70;26.40;;;;;;2265308;61;20404;-62
2022/01/26 07:22:27;0.00;0.00;0.62;0.00;0.00;0.62;7.57;3.90;;;19.80;26.50;;;;;;2265236;61;20396;-61
2022/01/26 07:25:12;0.00;0.00;0.62;0.00;0.00;0.62;5.60;3.67;;;19.80;26.50;;;;;;2265394;61;20368;-64
2022/01/26 07:27:57;0.00;0.00;0.62;0.00;0.00;0.62;6.33;3.73;;;19.80;26.50;;;;;;2264880;61;20463;-64
2022/01/26 07:30:43;0.00;0.00;0.62;0.00;0.00;0.62;8.30;3.63;;;19.80;26.50;;;;;;2265192;61;20396;-61
2022/01/26 07:33:27;0.00;0.00;0.62;0.00;0.00;0.62;5.77;4.33;;;19.80;26.50;;;;;;2264932;61;20380;-63
2022/01/26 07:36:11;0.00;0.00;0.62;0.00;0.00;0.62;4.73;3.70;;;19.80;26.50;;;;;;2265365;61;20396;-61
2022/01/26 07:39:06;0.00;0.00;0.62;0.00;0.00;0.62;5.80;3.67;;;19.90;26.50;;;;;;2264960;61;20364;-62
2022/01/26 07:41:50;0.00;0.00;0.62;0.00;0.00;0.62;5.40;4.00;;;19.80;26.50;;;;;;2264796;61;20397;-62
2022/01/26 07:44:35;0.00;0.00;0.62;0.00;0.00;0.62;4.97;4.10;;;19.90;26.50;;;;;;2266291;61;20361;-61
2022/01/26 07:47:20;0.00;0.00;0.62;0.00;0.00;0.62;4.30;3.30;;;19.90;26.50;;;;;;2265988;61;20424;-58
2022/01/26 07:50:08;0.00;0.00;0.62;0.00;0.00;0.62;3.83;3.20;;;19.90;26.50;;;;;;2265541;61;20396;-62
2022/01/26 07:52:53;0.00;0.00;0.62;0.00;0.00;0.62;6.27;4.47;;;19.90;26.50;;;;;;2265698;61;20443;-63
2022/01/26 07:55:39;0.00;0.00;0.62;0.00;0.00;0.62;4.30;2.90;;;19.90;26.50;;;;;;2265589;61;20376;-63
2022/01/26 07:58:24;0.00;0.00;0.62;0.00;0.00;0.62;5.37;3.50;;;19.90;26.50;;;;;;2265824;61;20369;-63
2022/01/26 08:01:09;0.00;0.00;0.62;0.00;0.00;0.62;4.73;3.00;;;19.90;26.50;;;;;;2265688;61;20400;-60
2022/01/26 08:03:54;0.00;0.00;0.62;0.00;0.00;0.62;4.87;3.60;;;19.90;26.50;;;;;;2265471;61;20449;-62
2022/01/26 08:06:40;0.00;0.00;0.62;0.00;0.00;0.62;4.37;3.30;;;19.90;26.50;;;;;;2266075;61;20403;-63
2022/01/26 08:09:24;0.00;0.00;0.62;0.00;0.00;0.62;4.17;3.43;;;19.90;26.50;;;;;;2266138;61;20361;-63
2022/01/26 08:12:12;0.00;0.00;0.62;0.00;0.00;0.62;4.17;3.40;;;19.90;26.50;;;;;;2265332;61;20369;-63
2022/01/26 08:14:57;0.00;0.00;0.62;0.00;0.00;0.62;4.60;2.70;;;20.00;26.60;;;;;;2265971;61;20365;-60
2022/01/26 08:17:42;0.00;0.00;0.62;0.00;0.00;0.62;4.20;3.10;;;20.00;26.60;;;;;;2265581;61;20353;-63
2022/01/26 08:20:26;0.00;0.00;0.62;0.00;0.00;0.62;4.90;3.20;;;20.00;26.60;;;;;;2265709;61;20634;-61
2022/01/26 08:23:11;0.00;0.00;0.62;0.00;0.00;0.62;4.20;2.93;;;20.00;26.60;;;;;;2265762;61;20424;-60
2022/01/26 08:25:56;0.00;0.00;0.62;0.00;0.00;0.62;4.00;3.50;;;20.00;26.60;;;;;;2265638;61;20372;-62
2022/01/26 08:28:46;0.00;0.00;0.62;0.00;0.00;0.62;4.80;3.13;;;20.00;26.60;;;;;;2265753;61;20443;-61
2022/01/26 08:31:30;0.00;0.00;0.62;0.00;0.00;0.62;4.93;3.67;;;20.00;26.60;;;;;;2265968;61;20361;-61
2022/01/26 08:34:15;0.00;0.00;0.62;0.00;0.00;0.62;4.17;3.40;;;20.00;26.60;;;;;;2265558;61;20361;-59
2022/01/26 08:37:00;0.00;0.00;0.62;0.00;0.00;0.62;3.90;2.77;;;20.00;26.60;;;;;;2265715;61;20395;-64
2022/01/26 08:39:45;0.00;0.00;0.62;0.00;0.00;0.62;4.53;3.37;;;20.00;26.60;;;;;;2265765;61;20407;-62
2022/01/26 08:42:29;0.00;0.00;0.62;0.00;0.00;0.62;5.77;3.80;;;20.00;26.60;;;;;;2265666;61;20468;-63
2022/01/26 08:45:15;0.00;0.00;0.62;0.00;0.00;0.62;4.90;3.40;;;20.00;26.60;;;;;;2266172;61;20361;-64
2022/01/26 08:48:00;0.00;0.00;0.62;0.00;0.00;0.62;4.77;3.10;;;20.00;26.60;;;;;;2265570;61;20377;-62
2022/01/26 08:50:45;0.00;0.00;0.62;0.00;0.00;0.62;4.20;3.40;;;20.10;26.70;;;;;;2265630;61;20357;-59
2022/01/26 08:53:29;0.00;0.00;0.62;0.00;0.00;0.62;4.97;3.43;;;20.10;26.70;;;;;;2265912;61;20449;-64
2022/01/26 08:56:15;0.00;0.00;0.62;0.00;0.00;0.62;4.90;3.37;;;20.10;26.70;;;;;;2265271;61;20361;-61
2022/01/26 08:59:00;0.00;0.00;0.62;0.00;0.00;0.62;4.37;3.33;;;20.10;26.70;;;;;;2265621;61;20356;-60
2022/01/26 09:01:46;0.00;0.00;0.62;0.00;0.00;0.62;5.93;3.93;;;20.10;26.70;;;;;;2265866;61;20440;-64
2022/01/26 09:04:30;0.00;0.00;0.62;0.00;0.00;0.62;4.10;3.13;;;20.10;26.70;;;;;;2265622;61;20709;-61
2022/01/26 09:07:16;0.00;0.00;0.62;0.00;0.00;0.62;5.30;3.50;;;20.10;27.20;;;;;;2265785;61;20360;-64
2022/01/26 09:10:03;0.00;0.00;0.62;0.00;0.00;0.62;6.70;4.07;;;20.10;26.70;;;;;;2265381;61;20385;-60
2022/01/26 09:12:48;0.00;0.00;0.62;0.00;0.00;0.62;5.13;4.00;;;20.10;26.70;;;;;;2265408;61;20461;-62
2022/01/26 09:15:34;0.00;0.00;0.62;0.00;0.00;0.62;5.33;3.77;;;20.10;26.70;;;;;;2265842;61;20368;-63
2022/01/26 09:18:31;0.00;0.00;0.62;0.00;0.00;0.62;5.23;3.63;;;20.10;26.70;;;;;;2264944;61;20357;-62
2022/01/26 09:21:16;0.00;0.00;0.62;0.00;0.00;0.62;4.83;3.90;;;20.10;26.70;;;;;;2265639;61;20504;-62
2022/01/26 09:24:00;0.00;0.00;0.62;0.00;0.00;0.62;6.03;4.40;;;20.10;26.70;;;;;;2265963;61;20353;-62
2022/01/26 09:26:45;0.00;0.00;0.62;0.00;0.00;0.62;5.07;4.20;;;20.10;26.70;;;;;;2265568;61;20396;-63
2022/01/26 09:29:30;0.00;0.00;0.62;0.00;0.00;0.62;4.43;3.43;;;20.10;26.80;;;;;;2265841;61;20697;-62
2022/01/26 09:32:15;0.00;0.00;0.62;0.00;0.00;0.62;4.77;3.20;;;20.10;26.70;;;;;;2265079;61;20377;-59
2022/01/26 09:35:02;0.00;0.00;0.62;0.00;0.00;0.62;5.37;3.80;;;20.10;26.70;;;;;;2265681;61;20356;-64
2022/01/26 09:37:47;0.00;0.00;0.62;0.00;0.00;0.62;6.00;3.93;;;20.10;26.70;;;;;;2265690;61;20456;-60
2022/01/26 09:40:31;0.00;0.00;0.62;0.00;0.00;0.62;7.10;4.13;;;20.10;26.70;;;;;;2264986;61;20357;-59
2022/01/26 09:43:17;0.00;0.00;0.62;0.00;0.00;0.62;6.90;4.97;;;20.10;26.70;;;;;;2265590;61;20428;-60
2022/01/26 09:46:02;0.00;0.00;0.62;0.00;0.00;0.62;7.70;5.57;;;20.10;26.70;;;;;;2265703;61;20480;-62
2022/01/26 09:48:46;0.00;0.00;0.62;0.00;0.00;0.62;5.73;4.07;;;20.10;26.70;;;;;;2265286;61;20419;-60
2022/01/26 09:51:39;0.00;0.00;0.62;0.00;0.00;0.62;6.30;4.73;;;20.10;26.70;;;;;;2265443;61;20353;-57
2022/01/26 09:54:26;0.00;0.00;0.62;0.00;0.00;0.62;5.50;4.20;;;20.10;26.70;;;;;;2265109;61;20365;-61
2022/01/26 09:57:11;0.00;0.00;0.62;0.00;0.00;0.62;7.60;5.10;;;20.20;26.70;;;;;;2265523;61;20468;-59
2022/01/26 09:59:56;0.00;0.00;0.62;0.00;0.00;0.62;7.00;5.03;;;20.10;26.70;;;;;;2265699;61;20444;-62
2022/01/26 10:02:43;0.00;0.00;0.62;0.00;0.00;0.62;6.30;5.57;;;20.20;26.70;;;;;;2264668;61;20744;-62
2022/01/26 10:05:40;0.00;0.00;0.62;0.00;0.00;0.62;5.37;4.07;;;20.20;26.80;;;;;;2265464;61;20357;-63
2022/01/26 10:09:15;0.00;0.00;0.62;0.00;0.00;0.62;5.63;4.13;;;20.20;26.70;;;;;;2265630;61;20376;-62
2022/01/26 10:18:08;0.00;0.00;0.62;0.00;0.00;0.62;6.13;4.17;;;20.20;26.70;;;;;;2264892;61;20348;-63
2022/01/26 10:20:58;0.00;0.00;0.62;0.00;0.00;0.62;5.20;3.97;;;20.20;26.70;;;;;;2265407;61;20763;-60
2022/01/26 10:23:44;0.00;0.00;0.62;0.00;0.00;0.62;6.00;4.00;;;20.20;26.70;;;;;;2265096;61;20718;-61
2022/01/26 10:26:29;0.00;0.00;0.62;0.00;0.00;0.62;4.80;3.93;;;20.20;26.70;;;;;;2265517;61;20488;-60
2022/01/26 10:29:15;0.00;0.00;0.62;0.00;0.00;0.62;5.20;3.57;;;20.20;26.70;;;;;;2265484;61;20396;-63
2022/01/26 10:32:11;0.00;0.00;0.62;0.00;0.00;0.62;5.30;4.00;;;20.20;26.70;;;;;;2264990;61;20396;-60
2022/01/26 10:34:57;0.00;0.00;0.62;0.00;0.00;0.62;6.60;4.20;;;20.20;26.70;;;;;;2265662;61;20427;-58
2022/01/26 10:37:50;0.00;0.00;0.62;0.00;0.00;0.62;6.40;4.03;;;20.20;26.70;;;;;;2265541;61;20361;-63
2022/01/26 10:40:39;0.00;0.00;0.62;0.00;0.00;0.62;4.93;3.30;;;20.20;26.80;;;;;;2265388;61;20357;-64
2022/01/26 10:43:24;0.00;0.00;0.62;0.00;0.00;0.62;4.60;3.33;;;20.20;26.80;;;;;;2265429;61;20401;-62
2022/01/26 10:46:08;0.00;0.00;0.62;0.00;0.00;0.62;4.73;3.60;;;20.20;26.70;;;;;;2265129;61;20381;-61
2022/01/26 10:49:07;0.00;0.00;0.62;0.00;0.00;0.62;5.53;4.17;;;20.20;26.70;;;;;;2265387;61;20403;-59
2022/01/26 10:51:55;0.00;0.00;0.62;0.00;0.00;0.62;5.33;4.40;;;20.20;26.70;;;;;;2265187;61;20392;-61
2022/01/26 10:54:40;0.00;0.00;0.62;0.00;0.00;0.62;5.30;3.83;;;20.20;26.70;;;;;;2264913;61;20667;-62
2022/01/26 10:57:26;0.00;0.00;0.62;0.00;0.00;0.62;6.20;4.20;;;20.20;26.70;;;;;;2265477;61;20365;-60
2022/01/26 11:00:13;0.00;0.00;0.62;0.00;0.00;0.62;5.87;3.40;;;20.20;26.70;;;;;;2265640;61;20365;-59
2022/01/26 11:02:57;0.00;0.00;0.62;0.00;0.00;0.62;5.80;4.50;;;20.20;26.70;;;;;;2265137;61;20427;-59
2022/01/26 11:05:42;0.00;0.00;0.62;0.00;0.00;0.62;4.23;3.60;;;20.20;26.70;;;;;;2265324;61;20381;-61
2022/01/26 11:08:28;0.00;0.00;0.62;0.00;0.00;0.62;5.83;4.17;;;20.20;26.70;;;;;;2265146;61;20364;-64
2022/01/26 11:11:19;0.00;0.00;0.62;0.00;0.00;0.62;5.00;3.93;;;20.30;26.80;;;;;;2265162;61;20589;-61
2022/01/26 11:14:14;0.00;0.00;0.62;0.00;0.00;0.62;5.73;3.83;;;20.30;26.80;;;;;;2265472;61;20389;-64
2022/01/26 11:17:01;0.00;0.00;0.62;0.00;0.00;0.62;5.20;3.70;;;20.30;26.80;;;;;;2264810;61;20728;-62
2022/01/26 11:19:48;0.00;0.00;0.62;0.00;0.00;0.62;5.43;4.07;;;20.30;26.80;;;;;;2265072;61;20456;-62
2022/01/26 11:22:32;0.00;0.00;0.62;0.00;0.00;0.62;4.80;3.67;;;20.30;26.80;;;;;;2265195;61;20423;-62
2022/01/26 11:25:17;0.00;0.00;0.62;0.00;0.00;0.62;5.30;3.87;;;20.30;26.80;;;;;;2265260;61;20622;-62
2022/01/26 11:28:12;0.00;0.00;0.62;0.00;0.00;0.62;3.87;3.47;;;20.20;26.70;;;;;;2265218;61;20480;-60
2022/01/26 11:31:04;0.00;0.00;0.62;0.00;0.00;0.62;4.90;3.37;;;20.20;26.70;;;;;;2264877;61;20638;-59
2022/01/26 11:33:50;0.00;0.00;0.62;0.00;0.00;0.62;4.87;3.80;;;20.30;26.80;;;;;;2265461;61;20599;-59
2022/01/26 11:36:35;0.00;0.00;0.62;0.00;0.00;0.62;5.40;4.00;;;20.30;26.80;;;;;;2265537;61;20366;-60
2022/01/26 11:45:27;0.00;0.00;0.62;0.00;0.00;0.62;4.80;3.53;;;20.30;26.80;;;;;;2264972;61;20542;-61
2022/01/26 11:48:24;0.00;0.00;0.62;0.00;0.00;0.62;5.50;3.63;;;20.30;26.80;;;;;;2265165;61;20737;-61
2022/01/26 11:51:09;0.00;0.00;0.62;0.00;0.00;0.62;4.90;3.70;;;20.30;26.80;;;;;;2265120;61;20365;-60
2022/01/26 11:53:53;0.00;0.00;0.62;0.00;0.00;0.62;4.40;3.73;;;20.30;26.80;;;;;;2264553;61;20472;-60
2022/01/26 11:56:38;0.00;0.00;0.62;0.00;0.00;0.62;6.27;4.63;;;20.30;26.80;;;;;;2265264;61;20388;-60
2022/01/26 11:59:25;0.00;0.00;0.62;0.00;0.00;0.62;3.93;2.93;;;20.30;26.80;;;;;;2265288;61;20752;-61
2022/01/26 12:02:36;0.00;0.00;0.62;0.00;0.00;0.62;4.03;3.47;;;20.30;26.80;;;;;;2264912;61;20392;-59
2022/01/26 12:05:24;0.00;0.00;0.62;0.00;0.00;0.62;4.67;3.70;;;20.30;26.80;;;;;;2265253;61;20379;-59
2022/01/26 12:08:08;0.00;0.00;0.62;0.00;0.00;0.62;4.30;3.30;;;20.30;26.80;;;;;;2264902;61;20825;-60
2022/01/26 12:10:53;0.00;0.00;0.62;0.00;0.00;0.62;4.03;3.30;;;20.30;26.80;;;;;;2265411;61;20361;-62
2022/01/26 12:13:40;0.00;0.00;0.62;0.00;0.00;0.62;5.00;3.77;;;20.30;26.80;;;;;;2265412;61;20381;-61
2022/01/26 12:16:33;0.00;0.00;0.62;0.00;0.00;0.62;4.60;3.60;;;20.30;26.80;;;;;;2264733;61;20396;-60
2022/01/26 12:19:31;0.00;0.00;0.62;0.00;0.00;0.62;5.87;4.70;;;20.30;26.80;;;;;;2265233;61;20593;-63
2022/01/26 12:34:45;0.00;0.00;0.62;0.00;0.00;0.62;4.80;3.47;;;20.30;26.80;;;;;;2265883;61;20407;-62
2022/01/26 12:37:50;0.00;0.00;0.62;0.00;0.00;0.62;5.07;3.73;;;20.30;26.80;;;;;;2265384;61;20448;-62
2022/01/26 12:43:47;0.00;0.00;0.62;0.00;0.00;0.62;5.13;4.17;;;20.30;26.80;;;;;;2265948;61;20875;-63
2022/01/26 12:46:34;0.00;0.00;0.62;0.00;0.00;0.62;4.20;3.40;;;20.30;26.80;;;;;;2265785;61;20365;-61
2022/01/26 12:49:24;0.00;0.00;0.62;0.00;0.00;0.62;6.23;4.63;;;20.30;26.80;;;;;;2265669;61;20844;-63